createdAt,value
2023-03-17T00:00:12.252Z,0.00
2023-03-17T00:01:12.238Z,0.00
2023-03-17T00:02:12.258Z,0.00
2023-03-17T00:03:12.215Z,0.00
2023-03-17T00:04:12.217Z,0.00
2023-03-17T00:05:12.192Z,0.00
2023-03-17T00:06:12.201Z,0.00
2023-03-17T00:07:12.181Z,0.00
2023-03-17T00:08:12.182Z,0.00
2023-03-17T00:09:12.197Z,0.00
2023-03-17T00:10:12.149Z,0.00
2023-03-17T00:11:12.153Z,0.00
2023-03-17T00:12:12.141Z,0.00
2023-03-17T00:13:12.143Z,0.00
2023-03-17T00:14:12.152Z,0.00
2023-03-17T00:15:12.132Z,0.00
2023-03-17T00:16:12.121Z,0.00
2023-03-17T00:17:12.109Z,0.00
2023-03-17T00:18:12.087Z,0.00
2023-03-17T00:19:12.080Z,0.00
2023-03-17T00:20:12.087Z,0.00
2023-03-17T00:21:12.067Z,0.00
2023-03-17T00:22:12.070Z,0.00
2023-03-17T00:24:12.449Z,0.00
2023-03-17T00:25:11.262Z,0.00
2023-03-17T00:26:11.272Z,0.00
2023-03-17T00:27:11.974Z,0.00
2023-03-17T00:28:11.238Z,0.00
2023-03-17T00:29:11.250Z,0.00
2023-03-17T00:30:11.215Z,0.00
2023-03-17T00:31:11.250Z,0.00
2023-03-17T00:32:11.204Z,0.00
2023-03-17T00:33:11.209Z,0.00
2023-03-17T00:34:11.190Z,0.00
2023-03-17T00:35:11.194Z,0.00
2023-03-17T00:36:11.189Z,0.00
2023-03-17T00:37:11.155Z,0.00
2023-03-17T00:38:11.166Z,0.00
2023-03-17T00:39:11.157Z,0.00
2023-03-17T00:40:12.252Z,0.00
2023-03-17T00:41:12.240Z,0.00
2023-03-17T00:42:12.227Z,0.00
2023-03-17T00:43:12.236Z,0.00
2023-03-17T00:44:12.241Z,0.00
2023-03-17T00:45:12.211Z,0.00
2023-03-17T00:46:12.289Z,0.00
2023-03-17T00:47:12.216Z,0.00
2023-03-17T00:48:12.193Z,0.00
2023-03-17T00:49:12.192Z,0.00
2023-03-17T00:50:12.193Z,0.00
2023-03-17T00:51:12.180Z,0.00
2023-03-17T00:52:12.149Z,0.00
2023-03-17T00:53:12.153Z,0.00
2023-03-17T00:54:12.167Z,0.00
2023-03-17T00:55:12.130Z,0.00
2023-03-17T00:56:12.135Z,0.00
2023-03-17T00:57:12.123Z,0.00
2023-03-17T00:58:12.113Z,0.00
2023-03-17T00:59:12.094Z,0.00
2023-03-17T01:00:12.105Z,0.00
2023-03-17T01:01:12.172Z,0.00
2023-03-17T01:02:12.236Z,0.00
2023-03-17T01:03:12.103Z,0.00
2023-03-17T01:04:12.060Z,0.00
2023-03-17T01:05:12.056Z,0.00
2023-03-17T01:06:12.061Z,0.00
2023-03-17T01:07:12.044Z,0.00
2023-03-17T01:08:12.051Z,0.00
2023-03-17T01:09:12.025Z,0.00
2023-03-17T01:10:12.029Z,0.00
2023-03-17T01:11:12.002Z,0.00
2023-03-17T01:12:12.000Z,0.00
2023-03-17T01:13:12.005Z,0.00
2023-03-17T01:14:11.984Z,0.00
2023-03-17T01:15:11.986Z,0.00
2023-03-17T01:16:12.016Z,0.00
2023-03-17T01:17:11.964Z,0.00
2023-03-17T01:18:11.952Z,0.00
2023-03-17T01:19:12.023Z,0.00
2023-03-17T01:20:11.944Z,0.00
2023-03-17T01:21:11.932Z,0.00
2023-03-17T01:22:11.923Z,0.00
2023-03-17T01:23:11.891Z,0.00
2023-03-17T01:24:11.886Z,0.00
2023-03-17T01:25:11.863Z,0.00
2023-03-17T01:26:11.864Z,0.00
2023-03-17T01:27:11.852Z,0.00
2023-03-17T01:28:12.845Z,0.00
2023-03-17T01:29:11.834Z,0.00
2023-03-17T01:30:11.838Z,0.00
2023-03-17T01:31:11.824Z,0.00
2023-03-17T01:32:11.823Z,0.00
2023-03-17T01:33:11.814Z,0.00
2023-03-17T01:34:11.800Z,0.00
2023-03-17T01:35:11.779Z,0.00
2023-03-17T01:36:11.871Z,0.00
2023-03-17T01:37:11.783Z,0.00
2023-03-17T01:38:11.762Z,0.00
2023-03-17T01:39:11.758Z,0.00
2023-03-17T01:40:11.749Z,0.00
2023-03-17T01:41:11.739Z,0.00
2023-03-17T01:42:11.851Z,0.00
2023-03-17T01:43:11.722Z,0.00
2023-03-17T01:44:11.716Z,0.00
2023-03-17T01:45:11.701Z,0.00
2023-03-17T01:46:11.771Z,0.00
2023-03-17T01:47:11.694Z,0.00
2023-03-17T01:48:11.678Z,0.00
2023-03-17T01:49:11.676Z,0.00
2023-03-17T01:50:11.663Z,0.00
2023-03-17T01:51:11.677Z,0.00
2023-03-17T01:52:11.798Z,0.00
2023-03-17T01:53:11.661Z,0.00
2023-03-17T01:54:11.630Z,0.00
2023-03-17T01:55:11.618Z,0.00
2023-03-17T01:56:11.997Z,0.00
2023-03-17T01:57:11.599Z,0.00
2023-03-17T01:58:11.604Z,0.00
2023-03-17T01:59:11.609Z,0.00
2023-03-17T02:00:11.567Z,0.00
2023-03-17T02:01:12.626Z,0.00
2023-03-17T02:02:11.715Z,0.00
2023-03-17T02:03:11.559Z,0.00
2023-03-17T02:04:11.657Z,0.00
2023-03-17T02:05:11.552Z,0.00
2023-03-17T02:06:11.550Z,0.00
2023-03-17T02:07:11.573Z,0.00
2023-03-17T02:08:12.520Z,0.00
2023-03-17T02:09:12.483Z,0.00
2023-03-17T02:10:11.506Z,0.00
2023-03-17T02:11:11.518Z,0.00
2023-03-17T02:12:11.490Z,0.00
2023-03-17T02:13:11.488Z,0.00
2023-03-17T02:14:11.475Z,0.00
2023-03-17T02:15:11.461Z,0.00
2023-03-17T02:16:11.533Z,0.00
2023-03-17T02:17:11.611Z,0.00
2023-03-17T02:18:11.488Z,0.00
2023-03-17T02:19:11.430Z,0.00
2023-03-17T02:20:11.432Z,0.00
2023-03-17T02:21:11.435Z,0.00
2023-03-17T02:22:11.488Z,0.00
2023-03-17T02:23:11.403Z,0.00
2023-03-17T02:24:11.407Z,0.00
2023-03-17T02:25:11.398Z,0.00
2023-03-17T02:26:11.423Z,0.00
2023-03-17T02:27:11.515Z,0.00
2023-03-17T02:28:11.380Z,0.00
2023-03-17T02:29:11.370Z,0.00
2023-03-17T02:30:11.355Z,0.00
2023-03-17T02:31:11.359Z,0.00
2023-03-17T02:32:11.467Z,0.00
2023-03-17T02:33:11.357Z,0.00
2023-03-17T02:34:11.327Z,0.00
2023-03-17T02:35:11.338Z,0.00
2023-03-17T02:36:11.358Z,0.00
2023-03-17T02:37:11.431Z,0.00
2023-03-17T02:38:11.313Z,0.00
2023-03-17T02:39:11.304Z,0.00
2023-03-17T02:40:11.287Z,0.00
2023-03-17T02:41:11.294Z,0.00
2023-03-17T02:42:11.402Z,0.00
2023-03-17T02:43:11.305Z,0.00
2023-03-17T02:44:11.253Z,0.00
2023-03-17T02:45:11.239Z,0.00
2023-03-17T02:46:11.279Z,0.00
2023-03-17T02:47:11.301Z,0.00
2023-03-17T02:48:11.230Z,0.00
2023-03-17T02:49:11.220Z,0.00
2023-03-17T02:50:11.205Z,0.00
2023-03-17T02:51:11.909Z,0.00
2023-03-17T02:52:11.226Z,0.00
2023-03-17T02:53:11.199Z,0.00
2023-03-17T02:54:11.174Z,0.00
2023-03-17T02:55:11.175Z,0.00
2023-03-17T02:56:11.160Z,0.00
2023-03-17T02:57:11.269Z,0.00
2023-03-17T02:58:11.135Z,0.00
2023-03-17T02:59:11.147Z,0.00
2023-03-17T03:00:11.130Z,0.00
2023-03-17T03:01:11.143Z,0.00
2023-03-17T03:02:11.154Z,0.00
2023-03-17T03:03:11.098Z,0.00
2023-03-17T03:04:11.102Z,0.00
2023-03-17T03:05:11.096Z,0.00
2023-03-17T03:06:11.097Z,0.00
2023-03-17T03:07:11.088Z,0.00
2023-03-17T03:08:11.056Z,0.00
2023-03-17T03:09:11.059Z,0.00
2023-03-17T03:10:11.066Z,0.00
2023-03-17T03:11:11.044Z,0.00
2023-03-17T03:12:11.033Z,0.00
2023-03-17T03:13:11.031Z,0.00
2023-03-17T03:14:11.021Z,0.00
2023-03-17T03:15:11.019Z,0.00
2023-03-17T03:16:11.967Z,0.00
2023-03-17T03:17:11.081Z,0.00
2023-03-17T03:18:10.985Z,0.00
2023-03-17T03:19:11.017Z,0.00
2023-03-17T03:20:10.965Z,0.00
2023-03-17T03:21:10.957Z,0.00
2023-03-17T03:22:10.953Z,0.00
2023-03-17T03:23:10.939Z,0.00
2023-03-17T03:24:10.985Z,0.00
2023-03-17T03:25:10.932Z,0.00
2023-03-17T03:26:10.979Z,0.00
2023-03-17T03:27:10.957Z,0.00
2023-03-17T03:28:10.892Z,0.00
2023-03-17T03:29:10.907Z,0.00
2023-03-17T03:30:10.898Z,0.00
2023-03-17T03:31:10.951Z,0.00
2023-03-17T03:32:10.862Z,0.00
2023-03-17T03:33:10.902Z,0.00
2023-03-17T03:34:10.870Z,0.00
2023-03-17T03:35:10.857Z,0.00
2023-03-17T03:36:10.892Z,0.00
2023-03-17T03:37:10.818Z,0.00
2023-03-17T03:38:11.834Z,0.00
2023-03-17T03:39:13.163Z,0.00
2023-03-17T03:40:10.813Z,0.00
2023-03-17T03:41:10.803Z,0.00
2023-03-17T03:42:10.841Z,0.00
2023-03-17T03:43:22.544Z,0.00
2023-03-17T03:44:12.777Z,0.00
2023-03-17T03:45:10.799Z,0.00
2023-03-17T03:46:10.797Z,0.00
2023-03-17T03:47:12.450Z,0.00
2023-03-17T03:48:10.744Z,0.00
2023-03-17T03:49:10.745Z,0.00
2023-03-17T03:50:10.734Z,0.00
2023-03-17T03:51:10.717Z,0.00
2023-03-17T03:52:11.710Z,0.00
2023-03-17T03:53:10.692Z,0.00
2023-03-17T03:54:10.725Z,0.00
2023-03-17T03:55:10.692Z,0.00
2023-03-17T03:56:10.673Z,0.00
2023-03-17T03:57:10.713Z,0.00
2023-03-17T03:58:10.659Z,0.00
2023-03-17T03:59:10.651Z,0.00
2023-03-17T04:00:10.641Z,0.00
2023-03-17T04:01:10.636Z,0.00
2023-03-17T04:02:10.628Z,0.00
2023-03-17T04:03:10.758Z,0.00
2023-03-17T04:04:10.620Z,0.00
2023-03-17T04:05:10.605Z,0.00
2023-03-17T04:06:10.598Z,0.00
2023-03-17T04:07:10.593Z,0.00
2023-03-17T04:08:10.608Z,0.00
2023-03-17T04:09:10.596Z,0.00
2023-03-17T04:10:10.574Z,0.00
2023-03-17T04:11:10.565Z,0.00
2023-03-17T04:12:10.564Z,0.00
2023-03-17T04:13:10.569Z,0.00
2023-03-17T04:14:10.546Z,0.00
2023-03-17T04:15:10.523Z,0.00
2023-03-17T04:16:10.553Z,0.00
2023-03-17T04:17:10.508Z,0.00
2023-03-17T04:18:10.497Z,0.00
2023-03-17T04:19:10.534Z,0.00
2023-03-17T04:20:10.497Z,0.00
2023-03-17T04:21:10.493Z,0.00
2023-03-17T04:22:10.486Z,0.00
2023-03-17T04:23:10.467Z,0.00
2023-03-17T04:24:10.476Z,0.00
2023-03-17T04:25:10.459Z,0.00
2023-03-17T04:26:10.442Z,0.00
2023-03-17T04:27:10.476Z,0.00
2023-03-17T04:28:10.420Z,0.00
2023-03-17T04:29:10.433Z,0.00
2023-03-17T04:30:10.431Z,0.00
2023-03-17T04:31:10.451Z,0.00
2023-03-17T04:32:10.527Z,0.00
2023-03-17T04:33:10.451Z,0.00
2023-03-17T04:34:10.380Z,0.00
2023-03-17T04:35:10.369Z,0.00
2023-03-17T04:36:10.373Z,0.00
2023-03-17T04:37:10.372Z,0.00
2023-03-17T04:38:10.357Z,0.00
2023-03-17T04:39:10.373Z,0.00
2023-03-17T04:40:10.332Z,0.00
2023-03-17T04:41:10.322Z,0.00
2023-03-17T04:42:10.317Z,0.00
2023-03-17T04:43:10.337Z,0.00
2023-03-17T04:44:10.330Z,0.00
2023-03-17T04:45:10.320Z,0.00
2023-03-17T04:46:10.350Z,0.00
2023-03-17T04:47:10.287Z,0.00
2023-03-17T04:48:10.285Z,0.00
2023-03-17T04:49:10.268Z,4.00
2023-03-17T04:50:10.261Z,0.00
2023-03-17T04:51:11.800Z,0.00
2023-03-17T04:52:11.243Z,0.00
2023-03-17T04:53:10.250Z,0.00
2023-03-17T04:54:10.228Z,0.00
2023-03-17T04:55:12.998Z,0.00
2023-03-17T04:56:11.245Z,0.00
2023-03-17T04:57:10.204Z,4.00
2023-03-17T04:58:13.353Z,4.00
2023-03-17T04:59:10.179Z,4.00
2023-03-17T05:00:11.009Z,0.00
2023-03-17T05:01:10.200Z,4.00
2023-03-17T05:02:10.188Z,4.00
2023-03-17T05:03:24.084Z,8.00
2023-03-17T05:04:25.245Z,4.00
2023-03-17T05:05:12.145Z,8.00
2023-03-17T05:06:11.023Z,8.00
2023-03-17T05:07:10.137Z,8.00
2023-03-17T05:08:10.111Z,12.00
2023-03-17T05:09:10.100Z,12.00
2023-03-17T05:10:10.091Z,16.00
2023-03-17T05:11:10.097Z,20.00
2023-03-17T05:12:10.084Z,24.00
2023-03-17T05:13:10.086Z,28.00
2023-03-17T05:14:10.070Z,32.00
2023-03-17T05:15:10.131Z,40.00
2023-03-17T05:16:10.525Z,48.00
2023-03-17T05:17:10.050Z,56.00
2023-03-17T05:18:10.042Z,64.00
2023-03-17T05:19:10.028Z,76.00
2023-03-17T05:20:10.025Z,92.00
2023-03-17T05:21:11.002Z,108.00
2023-03-17T05:22:10.012Z,120.00
2023-03-17T05:23:10.001Z,132.00
2023-03-17T05:24:09.989Z,152.00
2023-03-17T05:25:09.986Z,168.00
2023-03-17T05:26:09.988Z,184.00
2023-03-17T05:27:09.967Z,208.00
2023-03-17T05:28:09.950Z,228.00
2023-03-17T05:29:09.961Z,252.00
2023-03-17T05:30:09.938Z,280.00
2023-03-17T05:31:11.110Z,308.00
2023-03-17T05:32:10.930Z,344.00
2023-03-17T05:33:09.907Z,388.00
2023-03-17T05:34:09.932Z,440.00
2023-03-17T05:35:09.889Z,492.00
2023-03-17T05:36:09.902Z,552.00
2023-03-17T05:37:09.886Z,608.00
2023-03-17T05:38:09.868Z,676.00
2023-03-17T05:39:10.976Z,740.00
2023-03-17T05:40:09.856Z,816.00
2023-03-17T05:41:09.860Z,900.00
2023-03-17T05:42:09.868Z,1000.00
2023-03-17T05:43:09.842Z,1108.00
2023-03-17T05:44:09.827Z,1240.00
2023-03-17T05:45:09.814Z,1408.00
2023-03-17T05:46:09.862Z,1588.00
2023-03-17T05:47:09.811Z,1780.00
2023-03-17T05:48:09.804Z,1988.00
2023-03-17T05:49:10.444Z,2228.00
2023-03-17T05:50:09.776Z,2380.00
2023-03-17T05:51:09.789Z,2376.00
2023-03-17T05:52:09.767Z,2424.00
2023-03-17T05:53:09.869Z,2504.00
2023-03-17T05:54:10.429Z,2604.00
2023-03-17T05:55:09.770Z,2716.00
2023-03-17T05:56:09.806Z,2840.00
2023-03-17T05:57:10.789Z,2964.00
2023-03-17T05:58:09.758Z,3084.00
2023-03-17T05:59:11.650Z,3200.00
2023-03-17T06:00:11.718Z,3348.00
2023-03-17T06:01:09.858Z,3908.00
2023-03-17T06:02:09.833Z,7676.00
2023-03-17T06:03:10.055Z,11072.00
2023-03-17T06:04:10.682Z,11776.00
2023-03-17T06:05:09.695Z,12032.00
2023-03-17T06:06:09.671Z,11872.00
2023-03-17T06:07:09.648Z,12096.00
2023-03-17T06:08:09.674Z,12416.00
2023-03-17T06:09:10.515Z,12416.00
2023-03-17T06:10:09.626Z,13152.00
2023-03-17T06:11:09.623Z,14144.00
2023-03-17T06:12:09.623Z,14208.00
2023-03-17T06:13:10.533Z,13792.00
2023-03-17T06:14:09.597Z,12480.00
2023-03-17T06:15:09.579Z,13088.00
2023-03-17T06:16:09.698Z,13568.00
2023-03-17T06:17:09.605Z,13472.00
2023-03-17T06:18:09.559Z,12608.00
2023-03-17T06:19:09.552Z,12288.00
2023-03-17T06:20:09.555Z,11728.00
2023-03-17T06:21:09.538Z,13856.00
2023-03-17T06:22:09.520Z,16928.00
2023-03-17T06:23:09.553Z,16000.00
2023-03-17T06:24:10.051Z,15712.00
2023-03-17T06:25:10.802Z,16672.00
2023-03-17T06:26:09.949Z,19808.00
2023-03-17T06:27:11.047Z,21440.00
2023-03-17T06:28:09.487Z,19872.00
2023-03-17T06:29:09.525Z,19072.00
2023-03-17T06:30:09.609Z,20352.00
2023-03-17T06:31:09.514Z,21504.00
2023-03-17T06:32:20.216Z,16032.00
2023-03-17T06:33:11.521Z,11164.00
2023-03-17T06:34:09.430Z,9832.00
2023-03-17T06:35:09.431Z,11080.00
2023-03-17T06:36:09.522Z,11624.00
2023-03-17T06:37:09.413Z,10916.00
2023-03-17T06:38:09.394Z,9780.00
2023-03-17T06:39:09.397Z,8660.00
2023-03-17T06:40:09.385Z,8656.00
2023-03-17T06:41:09.382Z,8860.00
2023-03-17T06:42:09.370Z,8764.00
2023-03-17T06:43:09.955Z,8604.00
2023-03-17T06:44:09.379Z,8712.00
2023-03-17T06:45:09.410Z,10764.00
2023-03-17T06:46:09.410Z,13680.00
2023-03-17T06:47:09.324Z,15200.00
2023-03-17T06:48:09.379Z,15552.00
2023-03-17T06:49:09.310Z,14944.00
2023-03-17T06:50:09.305Z,13228.00
2023-03-17T06:51:09.938Z,15360.00
2023-03-17T06:52:09.283Z,15136.00
2023-03-17T06:53:11.034Z,13580.00
2023-03-17T06:54:09.290Z,12596.00
2023-03-17T06:55:09.316Z,11688.00
2023-03-17T06:56:20.028Z,11356.00
2023-03-17T06:57:11.253Z,11488.00
2023-03-17T06:58:09.250Z,11304.00
2023-03-17T06:59:09.593Z,11256.00
2023-03-17T07:00:10.080Z,10192.00
2023-03-17T07:01:10.940Z,9044.00
2023-03-17T07:02:09.265Z,8540.00
2023-03-17T07:03:09.208Z,8480.00
2023-03-17T07:04:10.129Z,8632.00
2023-03-17T07:05:09.197Z,9780.00
2023-03-17T07:06:09.191Z,8352.00
2023-03-17T07:07:09.179Z,7740.00
2023-03-17T07:08:09.153Z,7536.00
2023-03-17T07:09:09.149Z,7676.00
2023-03-17T07:10:09.157Z,7964.00
2023-03-17T07:11:09.953Z,7752.00
2023-03-17T07:12:09.127Z,7828.00
2023-03-17T07:13:09.135Z,7408.00
2023-03-17T07:14:09.156Z,7264.00
2023-03-17T07:15:09.100Z,7404.00
2023-03-17T07:16:09.139Z,7188.00
2023-03-17T07:17:09.080Z,7644.00
2023-03-17T07:18:09.054Z,7440.00
2023-03-17T07:19:09.083Z,7196.00
2023-03-17T07:20:09.044Z,6776.00
2023-03-17T07:21:09.086Z,6832.00
2023-03-17T07:22:09.051Z,7248.00
2023-03-17T07:23:10.452Z,7588.00
2023-03-17T07:24:09.033Z,7880.00
2023-03-17T07:25:10.031Z,9200.00
2023-03-17T07:26:09.050Z,9904.00
2023-03-17T07:27:09.012Z,9772.00
2023-03-17T07:28:08.991Z,10292.00
2023-03-17T07:29:08.969Z,12444.00
2023-03-17T07:30:08.977Z,13560.00
2023-03-17T07:31:09.046Z,14416.00
2023-03-17T07:32:08.959Z,14172.00
2023-03-17T07:33:09.037Z,15584.00
2023-03-17T07:34:08.983Z,16288.00
2023-03-17T07:35:08.958Z,16320.00
2023-03-17T07:36:09.071Z,16352.00
2023-03-17T07:37:09.008Z,16512.00
2023-03-17T07:38:08.912Z,16128.00
2023-03-17T07:39:11.495Z,14136.00
2023-03-17T07:40:09.879Z,15244.00
2023-03-17T07:41:08.892Z,15144.00
2023-03-17T07:42:08.867Z,15088.00
2023-03-17T07:43:08.851Z,14420.00
2023-03-17T07:44:08.881Z,15048.00
2023-03-17T07:45:08.861Z,14152.00
2023-03-17T07:46:08.900Z,14884.00
2023-03-17T07:47:08.834Z,14360.00
2023-03-17T07:48:08.872Z,15212.00
2023-03-17T07:49:08.851Z,15016.00
2023-03-17T07:50:09.545Z,14928.00
2023-03-17T07:51:08.831Z,14956.00
2023-03-17T07:52:08.861Z,14504.00
2023-03-17T07:53:08.784Z,15356.00
2023-03-17T07:54:08.766Z,15480.00
2023-03-17T07:55:08.803Z,15448.00
2023-03-17T07:56:08.761Z,15576.00
2023-03-17T07:57:08.818Z,15596.00
2023-03-17T07:58:09.412Z,15340.00
2023-03-17T07:59:08.742Z,15352.00
2023-03-17T08:00:08.736Z,15204.00
2023-03-17T08:01:08.714Z,15096.00
2023-03-17T08:02:08.765Z,14860.00
2023-03-17T08:03:10.912Z,14196.00
2023-03-17T08:04:09.834Z,13884.00
2023-03-17T08:05:08.691Z,13960.00
2023-03-17T08:06:09.559Z,12896.00
2023-03-17T08:07:08.695Z,13256.00
2023-03-17T08:08:08.724Z,13792.00
2023-03-17T08:09:08.659Z,14180.00
2023-03-17T08:10:08.680Z,14068.00
2023-03-17T08:11:09.417Z,14200.00
2023-03-17T08:12:08.662Z,14132.00
2023-03-17T08:13:08.631Z,13892.00
2023-03-17T08:14:08.627Z,13044.00
2023-03-17T08:15:09.475Z,13440.00
2023-03-17T08:16:08.640Z,12920.00
2023-03-17T08:17:09.150Z,13724.00
2023-03-17T08:18:09.559Z,13740.00
2023-03-17T08:19:09.466Z,13124.00
2023-03-17T08:20:08.634Z,13812.00
2023-03-17T08:21:08.603Z,13608.00
2023-03-17T08:22:08.547Z,14328.00
2023-03-17T08:23:09.553Z,14584.00
2023-03-17T08:24:08.585Z,15132.00
2023-03-17T08:25:08.568Z,14800.00
2023-03-17T08:26:08.546Z,14360.00
2023-03-17T08:27:08.517Z,13828.00
2023-03-17T08:28:08.535Z,13612.00
2023-03-17T08:29:08.496Z,13624.00
2023-03-17T08:30:08.484Z,13052.00
2023-03-17T08:31:11.022Z,11392.00
2023-03-17T08:32:09.480Z,9128.00
2023-03-17T08:33:08.608Z,7900.00
2023-03-17T08:34:08.472Z,7036.00
2023-03-17T08:35:08.472Z,6860.00
2023-03-17T08:36:08.436Z,6740.00
2023-03-17T08:37:11.320Z,6664.00
2023-03-17T08:38:10.096Z,6564.00
2023-03-17T08:39:08.437Z,6020.00
2023-03-17T08:40:08.457Z,5828.00
2023-03-17T08:41:08.439Z,5980.00
2023-03-17T08:42:08.420Z,6248.00
2023-03-17T08:43:09.006Z,6268.00
2023-03-17T08:44:08.380Z,6220.00
2023-03-17T08:45:08.388Z,6088.00
2023-03-17T08:46:08.402Z,6156.00
2023-03-17T08:47:08.380Z,6156.00
2023-03-17T08:48:08.336Z,6336.00
2023-03-17T08:49:08.336Z,6676.00
2023-03-17T08:50:08.315Z,6868.00
2023-03-17T08:51:08.320Z,7132.00
2023-03-17T08:52:08.328Z,7164.00
2023-03-17T08:53:08.321Z,7252.00
2023-03-17T08:54:08.289Z,7332.00
2023-03-17T08:55:08.280Z,7408.00
2023-03-17T08:56:08.267Z,7268.00
2023-03-17T08:57:08.300Z,7340.00
2023-03-17T08:58:08.284Z,7412.00
2023-03-17T08:59:08.263Z,7352.00
2023-03-17T09:00:09.099Z,7404.00
2023-03-17T09:01:08.291Z,7356.00
2023-03-17T09:02:08.244Z,7260.00
2023-03-17T09:03:08.596Z,7364.00
2023-03-17T09:04:08.203Z,7376.00
2023-03-17T09:05:08.622Z,7328.00
2023-03-17T09:06:08.202Z,7292.00
2023-03-17T09:07:09.708Z,7444.00
2023-03-17T09:08:09.277Z,7248.00
2023-03-17T09:09:08.201Z,7180.00
2023-03-17T09:10:08.187Z,7072.00
2023-03-17T09:11:08.155Z,7112.00
2023-03-17T09:12:08.153Z,7052.00
2023-03-17T09:13:08.173Z,6848.00
2023-03-17T09:14:08.172Z,6968.00
2023-03-17T09:15:08.130Z,6904.00
2023-03-17T09:16:08.214Z,6880.00
2023-03-17T09:17:08.121Z,6800.00
2023-03-17T09:18:08.080Z,6412.00
2023-03-17T09:19:09.614Z,6076.00
2023-03-17T09:20:08.137Z,6040.00
2023-03-17T09:21:08.083Z,6696.00
2023-03-17T09:22:08.094Z,6448.00
2023-03-17T09:23:08.123Z,6360.00
2023-03-17T09:24:08.086Z,6456.00
2023-03-17T09:25:08.046Z,6412.00
2023-03-17T09:26:09.150Z,6436.00
2023-03-17T09:27:08.042Z,6412.00
2023-03-17T09:28:09.086Z,6172.00
2023-03-17T09:29:08.049Z,6312.00
2023-03-17T09:30:08.019Z,6452.00
2023-03-17T09:31:08.012Z,6480.00
2023-03-17T09:32:07.999Z,6696.00
2023-03-17T09:33:08.058Z,6876.00
2023-03-17T09:34:07.971Z,6732.00
2023-03-17T09:35:07.978Z,7020.00
2023-03-17T09:36:08.505Z,7172.00
2023-03-17T09:37:07.965Z,7152.00
2023-03-17T09:38:07.935Z,7440.00
2023-03-17T09:39:07.945Z,7644.00
2023-03-17T09:40:10.497Z,7724.00
2023-03-17T09:41:07.929Z,7760.00
2023-03-17T09:42:07.898Z,7672.00
2023-03-17T09:43:07.929Z,7956.00
2023-03-17T09:44:08.614Z,8080.00
2023-03-17T09:45:07.942Z,8140.00
2023-03-17T09:46:08.447Z,8384.00
2023-03-17T09:47:07.869Z,8604.00
2023-03-17T09:48:07.853Z,8880.00
2023-03-17T09:49:07.873Z,9192.00
2023-03-17T09:50:08.598Z,9236.00
2023-03-17T09:51:07.868Z,9476.00
2023-03-17T09:52:07.840Z,9500.00
2023-03-17T09:53:07.873Z,9660.00
2023-03-17T09:54:07.788Z,9672.00
2023-03-17T09:55:07.795Z,9708.00
2023-03-17T09:56:08.668Z,9872.00
2023-03-17T09:57:07.784Z,10096.00
2023-03-17T09:58:07.813Z,10144.00
2023-03-17T09:59:07.762Z,10288.00
2023-03-17T10:00:07.767Z,10480.00
2023-03-17T10:01:07.767Z,10596.00
2023-03-17T10:02:08.711Z,10616.00
2023-03-17T10:03:08.497Z,10840.00
2023-03-17T10:04:07.725Z,10816.00
2023-03-17T10:05:08.493Z,10780.00
2023-03-17T10:06:07.707Z,11064.00
2023-03-17T10:07:07.701Z,10804.00
2023-03-17T10:08:22.651Z,10940.00
2023-03-17T10:09:09.696Z,10724.00
2023-03-17T10:10:07.676Z,10492.00
2023-03-17T10:11:07.717Z,10376.00
2023-03-17T10:12:07.689Z,10432.00
2023-03-17T10:13:07.672Z,10256.00
2023-03-17T10:14:07.690Z,10188.00
2023-03-17T10:15:07.659Z,9944.00
2023-03-17T10:16:08.681Z,9824.00
2023-03-17T10:17:07.623Z,9920.00
2023-03-17T10:18:07.606Z,9800.00
2023-03-17T10:19:07.603Z,9716.00
2023-03-17T10:20:08.532Z,9540.00
2023-03-17T10:21:07.585Z,9388.00
2023-03-17T10:22:08.574Z,9228.00
2023-03-17T10:23:07.614Z,9356.00
2023-03-17T10:24:07.556Z,9100.00
2023-03-17T10:25:07.591Z,9104.00
2023-03-17T10:26:07.645Z,9156.00
2023-03-17T10:27:07.560Z,9108.00
2023-03-17T10:28:08.991Z,9004.00
2023-03-17T10:29:08.523Z,9112.00
2023-03-17T10:30:07.519Z,9104.00
2023-03-17T10:31:07.511Z,9112.00
2023-03-17T10:32:07.483Z,9016.00
2023-03-17T10:33:07.517Z,9336.00
2023-03-17T10:34:07.494Z,9540.00
2023-03-17T10:35:07.504Z,9500.00
2023-03-17T10:36:07.508Z,9516.00
2023-03-17T10:37:07.454Z,9600.00
2023-03-17T10:38:14.327Z,9620.00
2023-03-17T10:39:10.097Z,9376.00
2023-03-17T10:40:07.447Z,9676.00
2023-03-17T10:41:07.432Z,9752.00
2023-03-17T10:42:07.483Z,9784.00
2023-03-17T10:43:07.422Z,9728.00
2023-03-17T10:44:08.027Z,9688.00
2023-03-17T10:45:07.427Z,9864.00
2023-03-17T10:46:07.535Z,9600.00
2023-03-17T10:47:07.429Z,9776.00
2023-03-17T10:48:08.021Z,9820.00
2023-03-17T10:49:07.394Z,9940.00
2023-03-17T10:50:07.361Z,10172.00
2023-03-17T10:51:07.336Z,10192.00
2023-03-17T10:52:07.325Z,10100.00
2023-03-17T10:53:07.329Z,10092.00
2023-03-17T10:54:07.316Z,10096.00
2023-03-17T10:55:07.402Z,10352.00
2023-03-17T10:56:07.305Z,10364.00
2023-03-17T10:57:07.302Z,10308.00
2023-03-17T10:58:07.273Z,10212.00
2023-03-17T10:59:07.379Z,10088.00
2023-03-17T11:00:07.271Z,9868.00
2023-03-17T11:01:07.717Z,9868.00
2023-03-17T11:02:07.280Z,9788.00
2023-03-17T11:03:07.346Z,9780.00
2023-03-17T11:04:07.319Z,9796.00
2023-03-17T11:05:08.043Z,9788.00
2023-03-17T11:06:07.236Z,9772.00
2023-03-17T11:07:08.137Z,9796.00
2023-03-17T11:08:07.231Z,9800.00
2023-03-17T11:09:07.260Z,9876.00
2023-03-17T11:10:07.983Z,9904.00
2023-03-17T11:11:07.172Z,10008.00
2023-03-17T11:12:07.169Z,10164.00
2023-03-17T11:13:08.197Z,10300.00
2023-03-17T11:14:07.140Z,10432.00
2023-03-17T11:15:07.154Z,10552.00
2023-03-17T11:16:07.200Z,10708.00
2023-03-17T11:17:07.128Z,10740.00
2023-03-17T11:18:07.121Z,10816.00
2023-03-17T11:19:07.112Z,10880.00
2023-03-17T11:20:07.092Z,10976.00
2023-03-17T11:21:07.084Z,11088.00
2023-03-17T11:22:07.129Z,11168.00
2023-03-17T11:23:07.091Z,11244.00
2023-03-17T11:24:07.093Z,11320.00
2023-03-17T11:25:07.052Z,11384.00
2023-03-17T11:26:07.059Z,11472.00
2023-03-17T11:27:07.039Z,11528.00
2023-03-17T11:28:07.033Z,11584.00
2023-03-17T11:29:07.643Z,11612.00
2023-03-17T11:30:07.000Z,11716.00
2023-03-17T11:31:07.656Z,11820.00
2023-03-17T11:32:07.097Z,11928.00
2023-03-17T11:33:07.077Z,11976.00
2023-03-17T11:34:07.001Z,12000.00
2023-03-17T11:35:07.031Z,12024.00
2023-03-17T11:36:07.112Z,12004.00
2023-03-17T11:37:08.744Z,11988.00
2023-03-17T11:38:06.991Z,11940.00
2023-03-17T11:39:07.003Z,11888.00
2023-03-17T11:40:06.945Z,11828.00
2023-03-17T11:41:06.942Z,11844.00
2023-03-17T11:42:06.959Z,11852.00
2023-03-17T11:43:06.907Z,11864.00
2023-03-17T11:44:06.927Z,11820.00
2023-03-17T11:45:06.903Z,11792.00
2023-03-17T11:46:06.968Z,11808.00
2023-03-17T11:47:06.939Z,11816.00
2023-03-17T11:48:07.560Z,11720.00
2023-03-17T11:49:06.881Z,11736.00
2023-03-17T11:50:06.864Z,11584.00
2023-03-17T11:51:06.891Z,11552.00
2023-03-17T11:52:06.868Z,11504.00
2023-03-17T11:53:06.846Z,11404.00
2023-03-17T11:54:06.876Z,11300.00
2023-03-17T11:55:07.540Z,11200.00
2023-03-17T11:56:06.812Z,11132.00
2023-03-17T11:57:06.818Z,11012.00
2023-03-17T11:58:07.658Z,10896.00
2023-03-17T11:59:07.632Z,10820.00
2023-03-17T12:00:06.813Z,10764.00
2023-03-17T12:01:06.781Z,10760.00
2023-03-17T12:02:06.790Z,10700.00
2023-03-17T12:03:06.809Z,10704.00
2023-03-17T12:04:06.870Z,10724.00
2023-03-17T12:05:06.754Z,10828.00
2023-03-17T12:06:06.750Z,10880.00
2023-03-17T12:07:06.723Z,10808.00
2023-03-17T12:08:06.708Z,10940.00
2023-03-17T12:09:06.700Z,10876.00
2023-03-17T12:10:06.697Z,10828.00
2023-03-17T12:11:06.714Z,10716.00
2023-03-17T12:12:07.180Z,10636.00
2023-03-17T12:13:06.702Z,10520.00
2023-03-17T12:14:09.695Z,10236.00
2023-03-17T12:15:06.667Z,10104.00
2023-03-17T12:16:06.736Z,10032.00
2023-03-17T12:17:06.639Z,10004.00
2023-03-17T12:18:06.637Z,9908.00
2023-03-17T12:19:06.634Z,9888.00
2023-03-17T12:20:06.628Z,9860.00
2023-03-17T12:21:06.606Z,9832.00
2023-03-17T12:22:06.619Z,9848.00
2023-03-17T12:23:07.586Z,9876.00
2023-03-17T12:24:06.569Z,9776.00
2023-03-17T12:25:06.579Z,9780.00
2023-03-17T12:26:06.602Z,9796.00
2023-03-17T12:27:06.603Z,9816.00
2023-03-17T12:28:06.572Z,9880.00
2023-03-17T12:29:06.547Z,9880.00